Time;durP1;ratioP1;P1;durP2;ratioP2;P2;SDS_P1;SDS_P2;PMS_P1;PMS_P2;Temp;Humidity;BMP_temperature;BMP_pressure;BME280_temperature;BME280_humidity;BME280_pressure;Samples;Min_cycle;Max_cycle;Signal;HPM_P1;HPM_P2
2022/04/14 00:01:44;;;;;;;21.83;15.60;;;13.40;99.90;;;;;;5074831;28;20175;-76
2022/04/14 00:04:10;;;;;;;24.53;15.97;;;13.40;99.90;;;;;;5056738;28;20214;-76
2022/04/14 00:06:35;;;;;;;22.13;15.13;;;13.40;99.90;;;;;;5074742;28;20182;-75
2022/04/14 00:09:01;;;;;;;25.87;16.20;;;13.40;99.90;;;;;;5056723;28;20545;-76
2022/04/14 00:11:26;;;;;;;23.63;17.30;;;13.40;99.90;;;;;;5056981;28;20190;-76
2022/04/14 00:13:52;;;;;;;21.47;16.20;;;13.30;99.90;;;;;;5074762;28;20191;-75
2022/04/14 00:16:17;;;;;;;24.73;17.23;;;13.40;99.90;;;;;;5074594;28;20182;-75
2022/04/14 00:18:43;;;;;;;22.17;16.47;;;13.30;99.90;;;;;;5056643;28;20277;-75
2022/04/14 00:21:09;;;;;;;25.03;16.70;;;13.30;99.90;;;;;;5074563;28;20175;-76
2022/04/14 00:23:34;;;;;;;25.97;16.53;;;13.30;99.90;;;;;;5074660;28;20202;-76
2022/04/14 00:26:00;;;;;;;25.13;15.57;;;13.30;99.90;;;;;;5056391;28;20622;-76
2022/04/14 00:28:25;;;;;;;19.77;15.37;;;13.30;99.90;;;;;;5056537;28;20525;-76
2022/04/14 00:30:51;;;;;;;23.73;16.53;;;13.30;99.90;;;;;;5074701;28;20665;-74
2022/04/14 00:33:17;;;;;;;22.60;15.83;;;13.30;99.90;;;;;;5056546;28;20684;-76
2022/04/14 00:35:43;;;;;;;23.63;15.80;;;13.30;99.90;;;;;;5074151;28;20194;-76
2022/04/14 00:38:09;;;;;;;19.73;14.63;;;13.20;99.90;;;;;;5074590;28;20212;-76
2022/04/14 00:40:34;;;;;;;23.07;15.70;;;13.20;99.90;;;;;;5074735;28;20171;-77
2022/04/14 00:43:00;;;;;;;26.50;17.07;;;13.20;99.90;;;;;;5074008;28;20194;-75
2022/04/14 00:45:25;;;;;;;26.60;17.27;;;13.10;99.90;;;;;;5074215;28;20195;-76
2022/04/14 00:47:53;;;;;;;29.30;18.23;;;13.20;99.90;;;;;;5056053;28;20191;-75
2022/04/14 00:50:19;;;;;;;25.03;18.07;;;13.20;99.90;;;;;;5073941;28;20550;-77
2022/04/14 00:52:46;;;;;;;28.93;17.67;;;13.10;99.90;;;;;;5073947;28;20171;-76
2022/04/14 00:55:13;;;;;;;26.03;17.93;;;13.20;99.90;;;;;;5055857;28;20309;-76
2022/04/14 00:57:38;;;;;;;25.87;18.37;;;13.10;99.90;;;;;;5074099;28;20209;-76
2022/04/14 01:00:05;;;;;;;26.93;17.90;;;13.10;99.90;;;;;;5074211;28;20604;-76
2022/04/14 01:02:30;;;;;;;27.27;18.97;;;13.10;99.90;;;;;;5073716;28;20210;-75
2022/04/14 01:04:58;;;;;;;25.60;18.43;;;13.10;99.90;;;;;;5073668;28;20242;-76
2022/04/14 01:07:25;;;;;;;28.73;18.90;;;13.00;99.90;;;;;;5073673;28;20179;-75
2022/04/14 01:09:51;;;;;;;29.10;19.77;;;13.00;99.90;;;;;;5055834;28;20181;-76
2022/04/14 01:12:18;;;;;;;24.13;17.80;;;13.00;99.90;;;;;;5073538;28;20619;-76
2022/04/14 01:14:43;;;;;;;25.77;18.63;;;13.00;99.90;;;;;;5073548;28;20573;-75
2022/04/14 01:17:09;;;;;;;29.10;20.23;;;13.00;99.90;;;;;;5073460;28;20175;-77
2022/04/14 01:19:36;;;;;;;28.60;19.73;;;13.00;99.90;;;;;;5073751;28;20183;-76
2022/04/14 01:22:15;;;;;;;28.27;19.53;;;13.00;99.90;;;;;;5073306;28;20178;-76
2022/04/14 01:24:41;;;;;;;29.13;19.10;;;13.00;99.90;;;;;;5055653;28;20210;-77
2022/04/14 01:27:08;;;;;;;27.00;18.70;;;13.00;99.90;;;;;;5055412;28;20642;-77
2022/04/14 01:29:34;;;;;;;27.27;18.53;;;13.00;99.90;;;;;;5055513;28;20183;-76
2022/04/14 01:32:02;;;;;;;28.90;20.03;;;13.00;99.90;;;;;;5056596;28;20562;-77
2022/04/14 01:34:30;;;;;;;29.70;19.63;;;12.90;99.90;;;;;;5055618;28;20199;-77
2022/04/14 01:36:56;;;;;;;28.07;18.50;;;13.00;99.90;;;;;;5075180;28;20178;-77
2022/04/14 01:39:22;;;;;;;26.13;19.77;;;12.90;99.90;;;;;;5057596;28;20191;-76
2022/04/14 01:41:47;;;;;;;25.00;18.30;;;12.90;99.90;;;;;;5056157;28;20572;-77
2022/04/14 01:44:13;;;;;;;28.20;20.30;;;12.90;99.90;;;;;;5074407;28;20215;-77
2022/04/14 01:46:40;;;;;;;28.50;19.50;;;12.90;99.90;;;;;;5056074;28;20175;-77
2022/04/14 01:49:07;;;;;;;27.90;20.20;;;12.90;99.90;;;;;;5056816;28;20183;-78
2022/04/14 01:51:33;;;;;;;36.33;22.93;;;12.90;99.90;;;;;;5075475;28;20552;-77
2022/04/14 01:53:58;;;;;;;33.27;23.07;;;12.90;99.90;;;;;;5073403;28;20198;-77
2022/04/14 01:56:24;;;;;;;37.37;25.03;;;12.90;99.90;;;;;;5073112;28;20186;-76
2022/04/14 01:58:50;;;;;;;34.80;23.80;;;12.80;99.90;;;;;;5055191;28;20190;-76
2022/04/14 02:01:16;;;;;;;38.87;24.87;;;12.80;99.90;;;;;;5072930;28;20206;-78
2022/04/14 02:03:41;;;;;;;34.10;24.00;;;12.80;99.90;;;;;;5072938;28;20207;-76
2022/04/14 02:06:08;;;;;;;34.37;23.00;;;12.80;99.90;;;;;;5073034;28;20281;-76
2022/04/14 02:08:33;;;;;;;34.50;23.23;;;12.80;99.90;;;;;;5054798;28;20695;-75
2022/04/14 02:10:59;;;;;;;34.13;23.67;;;12.80;99.90;;;;;;5072837;28;20258;-76
2022/04/14 02:13:24;;;;;;;36.50;24.43;;;12.80;99.90;;;;;;5054865;28;20225;-76
2022/04/14 02:15:50;;;;;;;38.97;23.10;;;12.80;99.90;;;;;;5073018;28;20202;-75
2022/04/14 02:18:15;;;;;;;37.33;24.93;;;12.70;99.90;;;;;;5054902;28;20179;-76
2022/04/14 02:20:41;;;;;;;33.27;22.63;;;12.80;99.90;;;;;;5073164;28;20194;-77
2022/04/14 02:23:06;;;;;;;34.07;23.20;;;12.70;99.90;;;;;;5056315;28;20187;-77
2022/04/14 02:25:32;;;;;;;38.83;24.13;;;12.70;99.90;;;;;;5059741;28;20221;-78
2022/04/14 02:27:57;;;;;;;32.03;23.13;;;12.70;99.90;;;;;;5077386;28;20239;-76
2022/04/14 02:30:23;;;;;;;34.83;22.73;;;12.70;99.90;;;;;;5075738;28;20262;-75
2022/04/14 02:32:48;;;;;;;33.97;24.70;;;12.60;99.90;;;;;;5076349;28;20182;-75
2022/04/14 02:35:14;;;;;;;40.93;25.97;;;12.60;99.90;;;;;;5058521;28;20207;-75
2022/04/14 02:37:40;;;;;;;36.33;26.10;;;12.60;99.90;;;;;;5076463;28;20179;-76
2022/04/14 02:40:06;;;;;;;35.00;24.33;;;12.60;99.90;;;;;;5058437;28;20244;-75
2022/04/14 02:42:31;;;;;;;39.17;26.20;;;12.70;99.90;;;;;;5058910;28;20551;-75
2022/04/14 02:44:57;;;;;;;42.13;25.53;;;12.70;99.90;;;;;;5058234;28;20215;-76
2022/04/14 02:47:22;;;;;;;41.80;24.90;;;12.60;99.90;;;;;;5076800;28;20179;-76
2022/04/14 02:49:48;;;;;;;35.73;25.10;;;12.70;99.90;;;;;;5076229;28;20250;-75
2022/04/14 02:52:13;;;;;;;37.37;23.70;;;12.60;99.90;;;;;;5076197;28;20254;-76
2022/04/14 02:54:39;;;;;;;35.40;24.60;;;12.60;99.90;;;;;;5076032;28;20230;-75
2022/04/14 02:57:09;;;;;;;32.23;23.47;;;12.70;99.90;;;;;;5076140;28;20179;-75
2022/04/14 02:59:36;;;;;;;35.50;24.33;;;12.60;99.90;;;;;;5076034;28;20257;-74
2022/04/14 03:02:03;;;;;;;37.33;24.63;;;12.60;99.90;;;;;;5057973;28;20187;-75
2022/04/14 03:04:30;;;;;;;38.70;25.23;;;12.60;99.90;;;;;;5075734;28;20734;-75
2022/04/14 03:06:56;;;;;;;38.13;24.90;;;12.60;99.90;;;;;;5075884;28;20175;-75
2022/04/14 03:09:22;;;;;;;38.03;24.87;;;12.60;99.90;;;;;;5075913;28;20182;-76
2022/04/14 03:11:48;;;;;;;34.63;24.23;;;12.60;99.90;;;;;;5075830;28;20179;-75
2022/04/14 03:14:13;;;;;;;34.23;24.53;;;12.60;99.90;;;;;;5075702;28;20199;-76
2022/04/14 03:16:39;;;;;;;38.07;25.83;;;12.60;99.90;;;;;;5076003;28;20179;-76
2022/04/14 03:19:05;;;;;;;43.20;27.90;;;12.60;99.90;;;;;;5057828;28;20186;-76
2022/04/14 03:21:30;;;;;;;40.30;26.53;;;12.60;99.90;;;;;;5075681;28;20764;-75
2022/04/14 03:23:56;;;;;;;41.33;26.10;;;12.60;99.90;;;;;;5057518;28;20217;-75
2022/04/14 03:26:21;;;;;;;41.13;26.20;;;12.50;99.90;;;;;;5057632;28;20646;-75
2022/04/14 03:28:47;;;;;;;35.90;24.20;;;12.50;99.90;;;;;;5057563;28;20183;-75
2022/04/14 03:31:12;;;;;;;33.33;23.27;;;12.50;99.90;;;;;;5057735;28;20233;-76
2022/04/14 03:33:38;;;;;;;33.53;23.63;;;12.50;99.90;;;;;;5075317;28;20179;-75
2022/04/14 03:36:04;;;;;;;37.10;24.37;;;12.40;99.90;;;;;;5075742;28;20632;-76
2022/04/14 03:38:30;;;;;;;33.87;22.37;;;12.50;99.90;;;;;;5075379;28;20171;-76
2022/04/14 03:40:56;;;;;;;32.43;22.80;;;12.40;99.90;;;;;;5075614;28;20254;-76
2022/04/14 03:43:22;;;;;;;31.40;22.50;;;12.40;99.90;;;;;;5057261;28;20656;-76
2022/04/14 03:45:48;;;;;;;35.77;24.10;;;12.40;99.90;;;;;;5057168;28;20198;-75
2022/04/14 03:48:13;;;;;;;39.63;25.80;;;12.40;99.90;;;;;;5057226;28;20239;-75
2022/04/14 03:50:39;;;;;;;36.20;24.57;;;12.30;99.90;;;;;;5075211;28;20231;-75
2022/04/14 03:53:05;;;;;;;37.63;25.37;;;12.30;99.90;;;;;;5075074;28;20175;-75
2022/04/14 03:55:30;;;;;;;38.23;25.67;;;12.30;99.90;;;;;;5056872;28;20704;-76
2022/04/14 03:57:56;;;;;;;35.03;24.07;;;12.30;99.90;;;;;;5057032;28;20289;-75
2022/04/14 04:00:21;;;;;;;38.87;26.23;;;12.30;99.90;;;;;;5057002;28;20175;-76
2022/04/14 04:02:47;;;;;;;35.20;25.33;;;12.30;99.90;;;;;;5057012;28;20550;-76
2022/04/14 04:05:12;;;;;;;33.60;24.63;;;12.30;99.90;;;;;;5074668;28;20569;-76
2022/04/14 04:07:39;;;;;;;35.40;25.40;;;12.20;99.90;;;;;;5074833;28;20632;-75
2022/04/14 04:10:05;;;;;;;39.63;25.97;;;12.20;99.90;;;;;;5056808;28;20189;-76
2022/04/14 04:12:31;;;;;;;42.57;27.97;;;12.20;99.90;;;;;;5074656;28;20210;-76
2022/04/14 04:14:57;;;;;;;36.97;25.77;;;12.20;99.90;;;;;;5074786;28;20195;-77
2022/04/14 04:17:22;;;;;;;34.60;24.57;;;12.20;99.90;;;;;;5074781;28;20213;-77
2022/04/14 04:19:48;;;;;;;36.57;25.97;;;12.20;99.90;;;;;;5074986;28;20207;-76
2022/04/14 04:22:14;;;;;;;40.03;26.87;;;12.10;99.90;;;;;;5074911;28;20232;-77
2022/04/14 04:24:39;;;;;;;38.27;25.43;;;12.10;99.90;;;;;;5074492;28;20202;-76
2022/04/14 04:27:05;;;;;;;36.43;24.17;;;12.10;99.90;;;;;;5056749;28;20716;-77
2022/04/14 04:29:31;;;;;;;36.40;25.03;;;12.10;99.90;;;;;;5074550;28;20171;-77
2022/04/14 04:31:56;;;;;;;35.03;24.60;;;12.10;99.90;;;;;;5074261;28;20266;-77
2022/04/14 04:34:22;;;;;;;37.53;25.63;;;12.00;99.90;;;;;;5074481;28;20191;-76
2022/04/14 04:36:47;;;;;;;42.93;27.37;;;12.00;99.90;;;;;;5074597;28;20534;-76
2022/04/14 04:39:14;;;;;;;43.23;28.17;;;12.00;99.90;;;;;;5075161;28;20262;-76
2022/04/14 04:41:39;;;;;;;44.20;29.23;;;12.00;99.90;;;;;;5056984;28;20727;-76
2022/04/14 04:44:05;;;;;;;40.77;28.23;;;12.00;99.90;;;;;;5056991;28;20211;-76
2022/04/14 04:46:31;;;;;;;40.87;27.97;;;12.00;99.90;;;;;;5056366;28;20179;-76
2022/04/14 04:48:57;;;;;;;44.97;29.37;;;12.00;99.90;;;;;;5056693;28;20180;-76
2022/04/14 04:51:24;;;;;;;44.87;29.50;;;12.00;99.90;;;;;;5074066;28;20261;-75
2022/04/14 04:53:50;;;;;;;40.40;26.93;;;12.00;99.90;;;;;;5055588;28;20186;-76
2022/04/14 04:56:18;;;;;;;48.83;28.07;;;11.90;99.90;;;;;;5057314;28;20190;-75
2022/04/14 04:58:44;;;;;;;38.70;24.80;;;11.90;99.90;;;;;;5055842;28;20194;-76
2022/04/14 05:01:10;;;;;;;43.63;27.47;;;11.90;99.90;;;;;;5055840;28;20198;-76
2022/04/14 05:03:35;;;;;;;50.20;31.50;;;11.90;99.90;;;;;;5055722;28;20203;-75
2022/04/14 05:06:01;;;;;;;43.80;28.93;;;11.90;99.90;;;;;;5055666;28;20222;-76
2022/04/14 05:08:26;;;;;;;42.90;28.73;;;11.90;99.90;;;;;;5074136;28;20203;-76
2022/04/14 05:10:52;;;;;;;42.00;28.67;;;11.90;99.90;;;;;;5073882;28;20648;-76
2022/04/14 05:13:18;;;;;;;39.70;27.17;;;11.90;99.90;;;;;;5073656;28;20198;-76
2022/04/14 05:15:43;;;;;;;40.83;28.30;;;11.90;99.90;;;;;;5055529;28;20743;-75
2022/04/14 05:18:09;;;;;;;43.80;28.53;;;11.80;99.90;;;;;;5073751;28;20175;-76
2022/04/14 05:20:35;;;;;;;43.40;30.20;;;11.80;99.90;;;;;;5073410;28;20202;-75
2022/04/14 05:23:01;;;;;;;44.87;30.53;;;11.90;99.90;;;;;;5073236;28;20753;-76
2022/04/14 05:25:27;;;;;;;46.57;30.27;;;11.90;99.90;;;;;;5055297;28;20560;-76
2022/04/14 05:27:53;;;;;;;45.57;29.70;;;11.80;99.90;;;;;;5073517;28;20225;-75
2022/04/14 05:30:18;;;;;;;42.30;26.97;;;11.90;99.90;;;;;;5073520;28;20175;-76
2022/04/14 05:32:44;;;;;;;40.87;27.10;;;11.80;99.90;;;;;;5073233;28;20232;-76
2022/04/14 05:35:10;;;;;;;34.73;25.60;;;11.80;99.90;;;;;;5073126;28;20542;-76
2022/04/14 05:37:36;;;;;;;38.53;26.33;;;11.90;99.90;;;;;;5055293;28;20233;-75
2022/04/14 05:40:06;;;;;;;35.70;24.00;;;11.90;99.90;;;;;;5073001;28;20254;-76
2022/04/14 05:42:31;;;;;;;35.50;23.47;;;11.90;99.90;;;;;;5055278;28;20661;-76
2022/04/14 05:44:59;;;;;;;34.70;22.77;;;11.90;99.90;;;;;;5072946;28;20275;-76
2022/04/14 05:47:24;;;;;;;33.23;23.80;;;11.90;99.90;;;;;;5073326;28;20172;-77
2022/04/14 05:49:53;;;;;;;36.73;25.83;;;11.90;99.90;;;;;;5073427;28;20175;-76
2022/04/14 05:52:20;;;;;;;36.43;24.63;;;11.80;99.90;;;;;;5054963;28;20178;-75
2022/04/14 05:54:46;;;;;;;34.80;24.80;;;11.90;99.90;;;;;;5073018;28;20276;-75
2022/04/14 05:57:15;;;;;;;37.97;24.70;;;11.90;99.90;;;;;;5054369;28;20210;-74
2022/04/14 05:59:41;;;;;;;34.80;24.57;;;11.90;99.90;;;;;;5072637;28;20210;-76
2022/04/14 06:02:08;;;;;;;36.27;24.27;;;11.90;99.90;;;;;;5054977;28;20179;-76
2022/04/14 06:04:34;;;;;;;33.90;23.60;;;11.90;99.90;;;;;;5054682;28;20266;-76
2022/04/14 06:06:59;;;;;;;36.33;24.83;;;11.90;99.90;;;;;;5055140;28;20201;-77
2022/04/14 06:09:25;;;;;;;45.77;27.03;;;11.90;99.90;;;;;;5072824;28;20179;-76
2022/04/14 06:11:50;;;;;;;39.13;25.90;;;11.90;99.90;;;;;;5054877;28;20177;-77
2022/04/14 06:14:16;;;;;;;42.60;27.17;;;12.00;99.90;;;;;;5072741;28;20195;-76
2022/04/14 06:16:41;;;;;;;41.70;27.87;;;12.00;99.90;;;;;;5054972;28;20278;-76
2022/04/14 06:19:07;;;;;;;46.30;28.30;;;12.00;99.90;;;;;;5054821;28;20183;-76
2022/04/14 06:21:32;;;;;;;42.60;28.40;;;12.00;99.90;;;;;;5072777;28;20190;-76
2022/04/14 06:23:58;;;;;;;38.73;26.80;;;12.10;99.90;;;;;;5072511;28;20207;-76
2022/04/14 06:26:23;;;;;;;46.73;28.47;;;12.10;99.90;;;;;;5072799;28;20657;-76
2022/04/14 06:28:49;;;;;;;41.97;26.80;;;12.10;99.90;;;;;;5072908;28;20229;-76
2022/04/14 06:31:14;;;;;;;40.83;27.87;;;12.10;99.90;;;;;;5054768;28;20257;-76
2022/04/14 06:33:40;;;;;;;41.93;28.00;;;12.20;99.90;;;;;;5054861;28;20221;-76
2022/04/14 06:36:06;;;;;;;36.47;26.13;;;12.20;99.90;;;;;;5054641;28;20669;-76
2022/04/14 06:38:32;;;;;;;41.50;27.97;;;12.20;99.90;;;;;;5054682;28;20179;-76
2022/04/14 06:40:57;;;;;;;44.03;29.27;;;12.20;99.90;;;;;;5054676;28;20193;-76
2022/04/14 06:43:24;;;;;;;55.67;32.13;;;12.30;99.90;;;;;;5054516;28;20254;-76
2022/04/14 06:45:51;;;;;;;56.37;33.13;;;12.30;99.90;;;;;;5072345;28;20198;-76
2022/04/14 06:48:16;;;;;;;47.10;29.50;;;12.30;99.90;;;;;;5072506;28;20180;-76
2022/04/14 06:50:42;;;;;;;46.50;29.43;;;12.30;99.90;;;;;;5054509;28;20179;-77
2022/04/14 06:53:08;;;;;;;43.20;29.57;;;12.30;99.90;;;;;;5054657;28;20213;-77
2022/04/14 06:55:35;;;;;;;48.97;31.40;;;12.30;99.90;;;;;;5073439;28;20211;-77
2022/04/14 06:58:02;;;;;;;52.93;34.40;;;12.30;99.90;;;;;;5072942;28;20198;-75
2022/04/14 07:00:28;;;;;;;51.57;32.03;;;12.30;99.90;;;;;;5072683;28;20645;-77
2022/04/14 07:02:54;;;;;;;48.30;30.80;;;12.30;99.90;;;;;;5054336;28;20236;-77
2022/04/14 07:05:21;;;;;;;47.37;31.97;;;12.40;99.90;;;;;;5072155;28;20298;-77
2022/04/14 07:07:46;;;;;;;50.33;32.13;;;12.40;99.90;;;;;;5072309;28;20167;-77
2022/04/14 07:10:13;;;;;;;50.47;31.73;;;12.30;99.90;;;;;;5075000;28;20175;-77
2022/04/14 07:12:39;;;;;;;50.13;32.00;;;12.40;99.90;;;;;;5076091;28;20549;-76
2022/04/14 07:15:06;;;;;;;49.83;32.87;;;12.40;99.90;;;;;;5058158;28;20199;-76
2022/04/14 07:17:32;;;;;;;52.87;32.97;;;12.40;99.90;;;;;;5075967;28;20175;-76
2022/04/14 07:19:58;;;;;;;54.23;35.30;;;12.50;99.90;;;;;;5058012;28;20562;-76
2022/04/14 07:22:23;;;;;;;57.77;35.83;;;12.40;99.90;;;;;;5076099;28;20189;-77
2022/04/14 07:24:50;;;;;;;69.07;40.03;;;12.50;99.90;;;;;;5057606;28;20225;-77
2022/04/14 07:27:20;;;;;;;70.17;40.97;;;12.50;99.90;;;;;;5057767;28;20179;-76
2022/04/14 07:29:46;;;;;;;71.07;42.63;;;12.60;99.90;;;;;;5075584;28;20175;-76
2022/04/14 07:32:13;;;;;;;69.27;42.57;;;12.60;99.90;;;;;;5075774;28;20171;-76
2022/04/14 07:34:38;;;;;;;69.97;42.33;;;12.60;99.90;;;;;;5075644;28;20199;-77
2022/04/14 07:37:04;;;;;;;74.00;41.63;;;12.70;99.90;;;;;;5075865;28;20278;-77
2022/04/14 07:39:30;;;;;;;67.70;41.23;;;12.80;99.90;;;;;;5075612;28;20227;-76
2022/04/14 07:41:55;;;;;;;71.97;42.17;;;12.80;99.90;;;;;;5071436;28;20187;-76
2022/04/14 07:44:21;;;;;;;73.37;42.20;;;12.80;99.90;;;;;;5061057;28;20249;-76
2022/04/14 07:46:47;;;;;;;69.90;41.47;;;12.90;99.90;;;;;;5049482;28;20321;-77
2022/04/14 07:49:12;;;;;;;75.93;43.27;;;13.00;99.90;;;;;;5073517;28;20179;-77
2022/04/14 07:51:40;;;;;;;67.97;39.20;;;13.00;99.90;;;;;;5056495;28;20179;-77
2022/04/14 07:54:06;;;;;;;61.00;37.70;;;13.10;99.90;;;;;;5051785;28;20223;-78
2022/04/14 07:56:33;;;;;;;62.33;37.83;;;13.10;99.90;;;;;;5051095;28;20265;-77
2022/04/14 07:58:59;;;;;;;64.07;38.43;;;13.20;99.90;;;;;;5052901;28;20662;-76
2022/04/14 08:01:25;;;;;;;60.93;37.17;;;13.30;99.90;;;;;;5054253;28;20183;-77
2022/04/14 08:03:51;;;;;;;59.13;38.53;;;13.40;99.90;;;;;;5053789;28;20674;-75
2022/04/14 08:06:16;;;;;;;57.10;36.60;;;13.40;99.90;;;;;;5054635;28;20262;-76
2022/04/14 08:08:42;;;;;;;63.40;37.23;;;13.50;99.90;;;;;;5054679;28;20247;-76
2022/04/14 08:11:11;;;;;;;56.07;35.43;;;13.70;99.90;;;;;;5036108;28;20186;-76
2022/04/14 08:13:41;;;;;;;58.13;37.10;;;13.70;99.90;;;;;;5054805;28;20271;-76
2022/04/14 08:16:09;;;;;;;58.53;36.53;;;13.80;99.90;;;;;;5036028;28;20274;-76
2022/04/14 08:18:39;;;;;;;55.60;34.60;;;13.90;99.90;;;;;;5054730;28;20183;-76
2022/04/14 08:21:05;;;;;;;52.90;35.43;;;14.00;99.90;;;;;;5052530;28;20191;-75
2022/04/14 08:23:32;;;;;;;57.80;35.57;;;14.00;99.90;;;;;;5035649;28;20323;-76
2022/04/14 08:25:58;;;;;;;55.83;34.60;;;14.10;99.90;;;;;;5036181;28;20290;-76
2022/04/14 08:28:24;;;;;;;50.23;33.53;;;14.20;99.90;;;;;;5051414;28;20262;-76
2022/04/14 08:30:49;;;;;;;56.57;36.20;;;14.30;99.90;;;;;;5050291;28;20194;-75
2022/04/14 08:33:18;;;;;;;58.50;36.30;;;14.50;99.90;;;;;;5032724;28;20266;-76
2022/04/14 08:35:44;;;;;;;55.33;35.83;;;14.60;99.90;;;;;;5041742;28;20225;-76
2022/04/14 08:38:10;;;;;;;55.33;36.47;;;14.70;99.90;;;;;;5016829;28;20234;-77
2022/04/14 08:40:38;;;;;;;55.07;37.40;;;14.80;99.90;;;;;;5034424;28;20180;-76
2022/04/14 08:43:09;;;;;;;56.30;38.50;;;14.90;99.90;;;;;;5016363;28;20230;-76
2022/04/14 08:45:37;;;;;;;54.27;36.60;;;14.90;99.90;;;;;;5016346;28;20260;-76
2022/04/14 08:48:04;;;;;;;56.63;38.93;;;15.00;99.90;;;;;;5016362;28;20180;-77
2022/04/14 08:50:31;;;;;;;54.07;37.77;;;15.20;99.90;;;;;;5034019;28;20239;-76
2022/04/14 08:52:57;;;;;;;58.53;39.23;;;15.40;99.90;;;;;;5033951;28;20579;-76
2022/04/14 08:55:24;;;;;;;56.43;38.40;;;15.40;99.90;;;;;;5029388;28;20223;-77
2022/04/14 08:57:50;;;;;;;57.17;37.47;;;15.50;99.90;;;;;;5053770;28;20663;-76
2022/04/14 09:00:16;;;;;;;58.43;39.90;;;15.70;99.90;;;;;;5054467;28;20279;-77
2022/04/14 09:02:45;;;;;;;57.07;39.93;;;15.70;99.90;;;;;;5053792;28;20194;-76
2022/04/14 09:05:11;;;;;;;57.40;40.17;;;15.90;99.90;;;;;;5053590;28;20207;-76
2022/04/14 09:07:38;;;;;;;55.10;38.80;;;15.90;99.90;;;;;;5053644;28;20234;-76
2022/04/14 09:10:05;;;;;;;57.73;38.33;;;16.00;99.90;;;;;;5053638;28;20182;-77
2022/04/14 09:12:32;;;;;;;64.03;44.87;;;16.00;99.90;;;;;;5035610;28;20286;-76
2022/04/14 09:15:00;;;;;;;59.97;42.23;;;16.00;99.90;;;;;;5053343;28;20207;-76
2022/04/14 09:17:27;;;;;;;54.80;42.27;;;16.00;99.90;;;;;;5053516;28;20183;-76
2022/04/14 09:19:52;;;;;;;50.50;36.83;;;16.10;99.90;;;;;;5053706;28;20183;-76
2022/04/14 09:22:20;;;;;;;49.07;35.90;;;16.10;99.90;;;;;;5035552;28;20553;-76
2022/04/14 09:24:49;;;;;;;53.73;38.30;;;16.20;99.90;;;;;;5053859;28;20211;-76
2022/04/14 09:27:29;;;;;;;55.73;39.20;;;16.20;99.90;;;;;;5053653;28;20230;-76
2022/04/14 09:30:00;;;;;;;52.33;37.93;;;16.30;99.90;;;;;;5035771;28;20207;-76
2022/04/14 09:32:37;;;;;;;50.47;37.97;;;16.30;99.90;;;;;;5053632;28;20210;-76
2022/04/14 09:35:15;;;;;;;48.47;34.90;;;16.50;99.90;;;;;;5036381;28;20211;-76
2022/04/14 09:37:41;;;;;;;43.90;31.87;;;16.60;99.90;;;;;;5054413;28;20168;-76
2022/04/14 09:40:08;;;;;;;45.53;31.60;;;16.60;1.00;;;;;;5036122;28;20248;-76
2022/04/14 09:42:39;;;;;;;41.33;30.90;;;16.60;1.00;;;;;;5054175;28;20190;-76
2022/04/14 09:45:18;;;;;;;42.77;32.73;;;16.70;81.40;;;;;;5053703;28;20210;-76
2022/04/14 09:47:43;;;;;;;39.70;28.87;;;16.70;1.00;;;;;;5053833;28;20198;-76
2022/04/14 09:50:34;;;;;;;38.10;28.07;;;16.80;1.00;;;;;;5053469;28;20180;-76
2022/04/14 09:53:05;;;;;;;42.70;31.97;;;16.90;99.90;;;;;;5053484;28;20705;-76
2022/04/14 09:55:35;;;;;;;42.90;31.53;;;17.00;99.90;;;;;;5035315;28;20219;-75
2022/04/14 09:58:16;;;;;;;33.97;27.40;;;17.10;99.90;;;;;;5035176;28;20701;-76
2022/04/14 10:00:44;;;;;;;34.27;27.93;;;17.20;99.90;;;;;;5035095;28;20178;-76
2022/04/14 10:03:11;;;;;;;36.80;28.27;;;17.30;1.00;;;;;;5052806;28;20193;-76
2022/04/14 10:05:37;;;;;;;35.07;25.87;;;17.30;1.00;;;;;;5052556;28;20199;-75
2022/04/14 10:08:07;;;;;;;34.03;26.80;;;17.40;1.00;;;;;;5052859;28;20176;-75
2022/04/14 10:10:33;;;;;;;39.17;29.77;;;17.40;99.90;;;;;;5052532;28;20168;-76
2022/04/14 10:13:05;;;;;;;38.03;29.07;;;17.50;1.00;;;;;;5052518;28;20706;-76
2022/04/14 10:15:33;;;;;;;35.00;28.03;;;17.60;99.90;;;;;;5034634;28;20690;-76
2022/04/14 10:18:04;;;;;;;34.47;27.43;;;17.70;1.00;;;;;;5052468;28;20709;-76
2022/04/14 10:20:30;;;;;;;36.80;25.57;;;17.50;99.90;;;;;;5052744;28;20214;-76
2022/04/14 10:22:58;;;;;;;36.70;25.37;;;17.50;1.00;;;;;;5034631;28;20271;-76
2022/04/14 10:25:24;;;;;;;32.03;25.23;;;17.60;1.00;;;;;;5034466;28;20219;-76
2022/04/14 10:27:54;;;;;;;29.77;23.53;;;17.50;99.90;;;;;;5052499;28;20171;-76
2022/04/14 10:30:20;;;;;;;26.13;19.90;;;17.40;1.00;;;;;;5052585;28;20677;-76
2022/04/14 10:32:46;;;;;;;26.23;19.13;;;17.30;1.00;;;;;;5034725;28;20179;-75
2022/04/14 10:35:12;;;;;;;27.03;21.63;;;17.30;99.90;;;;;;5052406;28;20207;-75
2022/04/14 10:37:48;;;;;;;31.17;25.33;;;17.40;1.00;;;;;;5052525;28;20246;-76
2022/04/14 10:40:14;;;;;;;32.03;24.73;;;17.50;99.90;;;;;;5034498;28;20186;-76
2022/04/14 10:42:48;;;;;;;30.77;23.57;;;17.50;1.00;;;;;;5054414;28;20186;-76
2022/04/14 10:45:18;;;;;;;31.77;25.30;;;17.50;1.00;;;;;;5072284;28;20309;-75
2022/04/14 10:47:50;;;;;;;26.40;22.20;;;17.60;99.90;;;;;;5062438;28;20215;-76
2022/04/14 10:50:31;;;;;;;22.80;18.30;;;17.80;45.70;;;;;;5076418;28;20168;-76
2022/04/14 10:53:19;;;;;;;20.20;15.77;;;17.80;1.00;;;;;;5072563;28;20186;-76
2022/04/14 10:55:47;;;;;;;19.37;16.00;;;18.10;1.00;;;;;;5049824;28;20587;-76
2022/04/14 10:58:36;;;;;;;19.23;15.60;;;18.20;99.90;;;;;;5052284;28;20206;-76
2022/04/14 11:01:02;;;;;;;20.10;17.20;;;18.00;99.90;;;;;;5051701;28;20192;-76
2022/04/14 11:03:48;;;;;;;21.40;18.13;;;18.20;99.90;;;;;;5052504;28;20573;-75
2022/04/14 11:06:39;;;;;;;19.23;17.13;;;18.30;99.90;;;;;;5080148;23;20246;-77
2022/04/14 11:09:07;;;;;;;20.03;17.10;;;18.50;27.90;;;;;;5078073;28;20573;-77
2022/04/14 11:11:59;;;;;;;18.63;14.80;;;18.60;99.90;;;;;;5077088;28;20183;-77
2022/04/14 11:14:25;;;;;;;16.23;13.53;;;18.80;99.90;;;;;;5076996;28;20218;-79
2022/04/14 11:16:50;;;;;;;17.83;13.23;;;18.90;1.00;;;;;;5072842;28;20242;-79
2022/04/14 11:19:18;;;;;;;17.47;15.10;;;18.90;1.00;;;;;;5076337;28;20195;-79
2022/04/14 11:22:01;;;;;;;22.97;16.67;;;18.90;1.00;;;;;;5077177;28;20202;-77
2022/04/14 11:24:42;;;;;;;18.10;14.43;;;18.80;1.00;;;;;;5076907;28;20573;-77
2022/04/14 11:27:24;;;;;;;20.03;14.90;;;18.80;99.90;;;;;;5076219;28;20619;-80
2022/04/14 11:29:53;;;;;;;17.53;14.87;;;18.80;99.90;;;;;;5059197;28;20266;-77
2022/04/14 11:32:35;;;;;;;20.20;15.17;;;18.80;99.90;;;;;;5069439;28;20183;-79
2022/04/14 11:35:16;;;;;;;17.27;14.80;;;18.70;99.90;;;;;;5067094;28;20199;-80
2022/04/14 11:37:46;;;;;;;14.97;10.80;;;18.60;1.00;;;;;;5076566;28;20187;-77
2022/04/14 11:40:15;;;;;;;13.80;10.90;;;18.30;1.00;;;;;;5079091;28;20722;-77
2022/04/14 11:42:42;;;;;;;13.10;10.80;;;18.30;99.90;;;;;;5078948;28;20265;-79
2022/04/14 11:45:08;;;;;;;12.93;11.53;;;18.20;1.00;;;;;;5077406;28;20202;-77
2022/04/14 11:47:34;;;;;;;17.87;12.67;;;18.20;1.00;;;;;;5077534;28;20187;-77
2022/04/14 11:49:59;;;;;;;15.70;11.47;;;18.10;1.00;;;;;;5079416;28;20171;-77
2022/04/14 11:52:25;;;;;;;11.20;9.83;;;18.20;99.90;;;;;;5064219;28;20596;-78
2022/04/14 11:54:51;;;;;;;11.97;9.93;;;18.20;99.90;;;;;;5077160;28;20175;-77
2022/04/14 11:57:25;;;;;;;11.30;8.43;;;18.30;99.90;;;;;;5098023;28;20205;-78
2022/04/14 11:59:50;;;;;;;9.60;7.87;;;18.20;99.90;;;;;;5080093;28;20210;-77
2022/04/14 12:02:21;;;;;;;9.87;7.60;;;18.10;99.90;;;;;;5080813;28;20546;-78
2022/04/14 12:04:53;;;;;;;11.30;8.73;;;18.10;99.90;;;;;;5099073;28;20661;-78
2022/04/14 12:07:21;;;;;;;12.13;7.97;;;18.10;99.90;;;;;;5097389;28;20226;-78
2022/04/14 12:09:46;;;;;;;10.63;8.33;;;18.20;1.00;;;;;;5104528;28;20659;-77
2022/04/14 12:12:17;;;;;;;11.13;8.70;;;18.10;99.90;;;;;;5103207;28;20253;-77
2022/04/14 12:14:47;;;;;;;9.67;8.50;;;18.20;1.00;;;;;;5097389;28;20193;-78
2022/04/14 12:17:22;;;;;;;9.47;7.27;;;18.10;99.90;;;;;;5097423;28;20238;-77
2022/04/14 12:20:08;;;;;;;7.77;6.00;;;18.10;1.00;;;;;;5079979;28;20186;-77
2022/04/14 12:22:35;;;;;;;7.33;5.67;;;18.10;1.00;;;;;;5098200;28;20185;-77
2022/04/14 12:25:09;;;;;;;12.20;6.00;;;18.10;1.00;;;;;;5096388;28;20214;-77
2022/04/14 12:27:34;;;;;;;9.10;5.90;;;18.20;99.90;;;;;;5097626;28;20257;-77
2022/04/14 12:30:08;;;;;;;7.73;5.60;;;18.20;99.90;;;;;;5096869;28;20665;-77